createdAt,value
2023-02-27T00:00:50.812Z,-2.61
2023-02-27T00:05:54.961Z,-2.62
2023-02-27T00:10:59.138Z,-2.72
2023-02-27T00:16:03.316Z,-2.78
2023-02-27T00:21:07.488Z,-2.86
2023-02-27T00:26:11.685Z,-2.96
2023-02-27T00:31:14.164Z,-3.00
2023-02-27T00:36:18.078Z,-3.05
2023-02-27T00:41:20.412Z,-3.08
2023-02-27T00:46:22.663Z,-3.10
2023-02-27T00:51:27.177Z,-3.11
2023-02-27T00:56:29.093Z,-3.16
2023-02-27T01:01:33.245Z,-3.17
2023-02-27T01:06:37.465Z,-3.19
2023-02-27T01:11:39.725Z,-3.27
2023-02-27T01:16:43.918Z,-3.32
2023-02-27T01:21:48.078Z,-3.36
2023-02-27T01:26:52.183Z,-3.40
2023-02-27T01:31:56.487Z,-3.45
2023-02-27T01:37:00.538Z,-3.45
2023-02-27T01:42:04.712Z,-3.47
2023-02-27T01:47:08.903Z,-3.52
2023-02-27T01:52:13.022Z,-3.53
2023-02-27T01:57:17.195Z,-3.58
2023-02-27T02:02:21.404Z,-3.60
2023-02-27T02:07:25.519Z,-3.66
2023-02-27T02:12:29.694Z,-3.70
2023-02-27T02:17:33.862Z,-3.77
2023-02-27T02:22:38.042Z,-3.77
2023-02-27T02:27:42.194Z,-3.80
2023-02-27T02:32:46.378Z,-3.83
2023-02-27T02:37:50.607Z,-3.85
2023-02-27T02:42:54.706Z,-3.95
2023-02-27T02:47:58.907Z,-4.02
2023-02-27T02:53:03.047Z,-4.06
2023-02-27T02:58:05.326Z,-4.10
2023-02-27T03:03:09.525Z,-4.13
2023-02-27T03:08:11.785Z,-4.18
2023-02-27T03:13:15.957Z,-4.16
2023-02-27T03:18:20.143Z,-4.18
2023-02-27T03:23:24.278Z,-4.17
2023-02-27T03:28:28.471Z,-4.27
2023-02-27T03:33:32.605Z,-4.36
2023-02-27T03:38:36.781Z,-4.39
2023-02-27T03:43:40.942Z,-4.44
2023-02-27T03:48:45.098Z,-4.52
2023-02-27T03:53:49.277Z,-4.55
2023-02-27T03:58:53.443Z,-4.53
2023-02-27T04:03:57.749Z,-4.52
2023-02-27T04:09:01.824Z,-4.54
2023-02-27T04:14:05.972Z,-4.59
2023-02-27T04:19:10.153Z,-4.51
2023-02-27T04:24:14.310Z,-4.50
2023-02-27T04:29:18.486Z,-4.54
2023-02-27T04:34:22.624Z,-4.58
2023-02-27T04:39:26.790Z,-4.60
2023-02-27T04:44:30.993Z,-4.55
2023-02-27T04:49:35.166Z,-4.61
2023-02-27T04:54:37.439Z,-4.59
2023-02-27T04:59:41.611Z,-4.69
2023-02-27T05:04:43.873Z,-4.79
2023-02-27T05:09:48.027Z,-4.82
2023-02-27T05:14:52.225Z,-4.80
2023-02-27T05:19:56.366Z,-4.83
2023-02-27T05:25:00.570Z,-4.81
2023-02-27T05:30:04.789Z,-4.70
2023-02-27T05:35:08.878Z,-4.77
2023-02-27T05:40:13.051Z,-4.79
2023-02-27T05:45:17.233Z,-4.79
2023-02-27T05:50:21.376Z,-4.76
2023-02-27T05:55:25.575Z,-4.80
2023-02-27T06:00:29.719Z,-4.89
2023-02-27T06:05:33.910Z,-4.74
2023-02-27T06:10:38.053Z,-4.81
2023-02-27T06:15:42.235Z,-4.87
2023-02-27T06:20:46.420Z,-4.84
2023-02-27T06:25:50.558Z,-4.83
2023-02-27T06:30:54.813Z,-4.85
2023-02-27T06:35:59.012Z,-4.96
2023-02-27T06:41:03.066Z,-4.96
2023-02-27T06:46:07.296Z,-4.89
2023-02-27T06:51:09.533Z,-4.92
2023-02-27T06:56:13.705Z,-4.75
2023-02-27T07:01:17.869Z,-4.65
2023-02-27T07:06:20.118Z,-4.75
2023-02-27T07:11:24.315Z,-4.73
2023-02-27T07:16:28.886Z,-4.65
2023-02-27T07:21:32.629Z,-4.64
2023-02-27T07:26:36.834Z,-4.61
2023-02-27T07:31:40.988Z,-4.53
2023-02-27T07:36:45.144Z,-4.35
2023-02-27T07:41:49.308Z,-4.20
2023-02-27T07:46:53.586Z,-4.08
2023-02-27T07:51:57.666Z,-3.93
2023-02-27T07:57:01.835Z,-3.66
2023-02-27T08:02:06.001Z,-3.40
2023-02-27T08:07:10.177Z,-3.21
2023-02-27T08:12:14.314Z,-3.00
2023-02-27T08:17:18.484Z,-2.73
2023-02-27T08:22:22.684Z,-2.24
2023-02-27T08:27:26.815Z,-1.93
2023-02-27T08:32:31.073Z,-1.72
2023-02-27T08:37:35.166Z,-1.50
2023-02-27T08:42:39.299Z,-1.22
2023-02-27T08:47:43.505Z,-1.07
2023-02-27T08:52:45.776Z,-1.02
2023-02-27T08:57:49.915Z,-0.99
2023-02-27T09:02:54.240Z,-0.77
2023-02-27T09:07:58.286Z,-0.60
2023-02-27T09:13:02.448Z,-0.37
2023-02-27T09:18:06.666Z,-0.21
2023-02-27T09:23:10.771Z,0.07
2023-02-27T09:28:14.978Z,0.36
2023-02-27T09:33:19.122Z,0.63
2023-02-27T09:38:23.257Z,1.05
2023-02-27T09:43:27.410Z,1.11
2023-02-27T09:48:31.593Z,1.33
2023-02-27T09:53:35.785Z,1.54
2023-02-27T09:58:39.924Z,1.74
2023-02-27T10:03:44.093Z,1.95
2023-02-27T10:08:48.300Z,1.80
2023-02-27T10:13:52.444Z,2.06
2023-02-27T10:18:56.588Z,2.20
2023-02-27T10:24:00.762Z,2.04
2023-02-27T10:29:04.951Z,2.19
2023-02-27T10:34:09.098Z,2.14
2023-02-27T10:39:11.350Z,1.98
2023-02-27T10:44:15.631Z,1.98
2023-02-27T10:49:19.164Z,2.27
2023-02-27T10:54:21.956Z,2.71
2023-02-27T10:59:24.237Z,3.10
2023-02-27T11:04:28.416Z,3.36
2023-02-27T11:09:32.578Z,3.64
2023-02-27T11:14:36.751Z,3.46
2023-02-27T11:19:40.885Z,3.74
2023-02-27T11:24:45.030Z,3.86
2023-02-27T11:29:49.235Z,3.82
2023-02-27T11:34:53.585Z,3.77
2023-02-27T11:39:57.556Z,3.99
2023-02-27T11:45:01.725Z,3.94
2023-02-27T11:50:05.892Z,4.02
2023-02-27T11:55:10.060Z,4.25
2023-02-27T12:00:14.244Z,4.17
2023-02-27T12:05:18.364Z,4.22
2023-02-27T12:10:22.561Z,4.31
2023-02-27T12:15:26.702Z,4.48
2023-02-27T12:20:30.831Z,4.59
2023-02-27T12:25:35.019Z,4.65
2023-02-27T12:30:39.165Z,4.73
2023-02-27T12:35:43.393Z,4.75
2023-02-27T12:40:47.522Z,4.79
2023-02-27T12:45:49.846Z,5.19
2023-02-27T12:50:53.927Z,5.29
2023-02-27T12:55:56.241Z,5.33
2023-02-27T13:01:00.402Z,4.94
2023-02-27T13:06:04.564Z,4.47
2023-02-27T13:11:08.708Z,4.26
2023-02-27T13:16:12.904Z,4.04
2023-02-27T13:21:17.049Z,4.00
2023-02-27T13:26:21.209Z,3.85
2023-02-27T13:31:25.543Z,4.65
2023-02-27T13:36:29.545Z,4.95
2023-02-27T13:41:35.972Z,4.49
2023-02-27T13:46:37.984Z,4.55
2023-02-27T13:51:42.013Z,5.19
2023-02-27T13:56:46.185Z,5.43
2023-02-27T14:01:50.359Z,5.48
2023-02-27T14:06:54.498Z,5.26
2023-02-27T14:11:58.662Z,5.26
2023-02-27T14:17:02.845Z,5.27
2023-02-27T14:22:06.959Z,5.71
2023-02-27T14:27:11.177Z,5.56
2023-02-27T14:32:15.383Z,5.59
2023-02-27T14:37:19.482Z,5.34
2023-02-27T14:42:21.808Z,5.17
2023-02-27T14:47:25.876Z,4.81
2023-02-27T14:52:28.282Z,4.99
2023-02-27T14:57:32.386Z,5.16
2023-02-27T15:02:34.656Z,4.82
2023-02-27T15:07:38.762Z,4.70
2023-02-27T15:12:42.933Z,4.64
2023-02-27T15:17:47.111Z,4.40
2023-02-27T15:22:51.283Z,4.27
2023-02-27T15:27:55.429Z,4.10
2023-02-27T15:32:59.621Z,4.12
2023-02-27T15:38:03.786Z,4.38
2023-02-27T15:43:07.962Z,4.65
2023-02-27T15:48:12.097Z,4.49
2023-02-27T15:53:16.259Z,4.31
2023-02-27T15:58:20.479Z,4.23
2023-02-27T16:03:24.592Z,4.12
2023-02-27T16:08:28.750Z,4.01
2023-02-27T16:13:32.900Z,3.98
2023-02-27T16:18:37.089Z,3.95
2023-02-27T16:23:41.223Z,3.94
2023-02-27T16:28:45.399Z,4.35
2023-02-27T16:33:49.600Z,4.57
2023-02-27T16:38:51.844Z,4.03
2023-02-27T16:43:55.998Z,3.93
2023-02-27T16:49:00.667Z,3.81
2023-02-27T16:54:02.414Z,3.67
2023-02-27T16:59:06.612Z,3.60
2023-02-27T17:04:23.362Z,3.50
2023-02-27T17:09:14.951Z,3.38
2023-02-27T17:14:19.088Z,3.28
2023-02-27T17:19:23.282Z,3.14
2023-02-27T17:24:27.444Z,3.00
2023-02-27T17:29:31.595Z,2.94
2023-02-27T17:34:35.766Z,2.83
2023-02-27T17:39:39.924Z,2.71
2023-02-27T17:44:45.120Z,2.57
2023-02-27T17:49:48.261Z,2.42
2023-02-27T17:54:52.407Z,2.40
2023-02-27T17:59:56.579Z,2.30
2023-02-27T18:05:00.763Z,2.22
2023-02-27T18:10:04.918Z,2.15
2023-02-27T18:15:09.039Z,2.14
2023-02-27T18:20:13.202Z,2.12
2023-02-27T18:25:17.389Z,1.98
2023-02-27T18:30:21.531Z,1.94
2023-02-27T18:35:23.932Z,1.89
2023-02-27T18:40:28.009Z,1.75
2023-02-27T18:45:30.345Z,1.72
2023-02-27T18:50:34.520Z,1.73
2023-02-27T18:55:38.622Z,1.77
2023-02-27T19:00:42.783Z,1.80
2023-02-27T19:05:46.932Z,1.87
2023-02-27T19:10:51.084Z,1.96
2023-02-27T19:15:55.448Z,1.97
2023-02-27T19:20:59.409Z,2.05
2023-02-27T19:26:03.613Z,2.09
2023-02-27T19:31:07.850Z,2.10
2023-02-27T19:36:11.941Z,2.14
2023-02-27T19:41:16.099Z,2.10
2023-02-27T19:46:20.351Z,2.03
2023-02-27T19:51:24.427Z,1.94
2023-02-27T19:56:28.887Z,1.94
2023-02-27T20:01:32.714Z,1.85
2023-02-27T20:06:36.933Z,1.75
2023-02-27T20:11:41.081Z,1.61
2023-02-27T20:16:45.321Z,1.56
2023-02-27T20:21:49.623Z,1.47
2023-02-27T20:26:53.568Z,1.44
2023-02-27T20:31:55.967Z,1.32
2023-02-27T20:37:00.017Z,1.40
2023-02-27T20:42:02.299Z,1.49
2023-02-27T20:47:06.477Z,1.53
2023-02-27T20:52:10.617Z,1.42
2023-02-27T20:57:14.754Z,1.32
2023-02-27T21:02:18.927Z,1.18
2023-02-27T21:07:23.099Z,1.08
2023-02-27T21:12:27.257Z,0.93
2023-02-27T21:17:31.437Z,0.72
2023-02-27T21:22:35.587Z,0.42
2023-02-27T21:27:39.770Z,0.10
2023-02-27T21:32:43.927Z,-0.22
2023-02-27T21:37:48.093Z,-0.51
2023-02-27T21:42:52.277Z,-0.71
2023-02-27T21:47:56.441Z,-0.93
2023-02-27T21:53:00.591Z,-1.08
2023-02-27T21:58:04.754Z,-1.21
2023-02-27T22:03:08.950Z,-1.34
2023-02-27T22:08:13.067Z,-1.49
2023-02-27T22:13:17.287Z,-1.59
2023-02-27T22:18:21.406Z,-1.68
2023-02-27T22:23:25.594Z,-1.73
2023-02-27T22:28:27.886Z,-1.77
2023-02-27T22:33:32.032Z,-1.82
2023-02-27T22:38:34.333Z,-1.87
2023-02-27T22:43:38.473Z,-1.91
2023-02-27T22:48:42.663Z,-1.98
2023-02-27T22:53:46.806Z,-2.02
2023-02-27T22:58:51.034Z,-2.12
2023-02-27T23:03:55.165Z,-2.16
2023-02-27T23:08:59.329Z,-2.17
2023-02-27T23:14:03.535Z,-2.17
2023-02-27T23:19:07.669Z,-2.10
2023-02-27T23:24:11.813Z,-2.00
2023-02-27T23:29:15.998Z,-1.88
2023-02-27T23:34:20.141Z,-1.74
2023-02-27T23:39:24.288Z,-1.71
2023-02-27T23:44:28.518Z,-1.63
2023-02-27T23:49:32.669Z,-1.62
2023-02-27T23:54:36.797Z,-1.63
2023-02-27T23:59:41.002Z,-1.60
